• Join FlightAware (Why Join?)
  • Login
  • US Flag 
10:02PM EST


 

Airport Tracker/Info


-or-


 

Live Flight TrackerFlight Track Log ✈ AVN31 ✈ 03-Oct-2013 ✈ YMML / MEL - NVVV / VLI

Flight Track Log - Related Links

Times and Time Zones

All times are in EDT time to prevent confusion due to time zone crossing. See the AVN31 flight status page for this flight to view local times or setup timezone preferences in your user account.

Time Position Orientation Groundspeed Altitude Reporting Facility
EDT Latitude Longitude Course Direction KTS MPH feet Rate Location/Type
07:33AM -37.6590 144.8010 274° West 162 186 1,300  Level FlightAware
07:33AM -37.6585 144.7900 275° West 154 177 2,100 2,100 Climbing Aus ATC (RADAR)
07:33AM -37.6580 144.7830 274° West 170 196 2,000 600 Descending FlightAware
07:34AM -37.6570 144.7600 273° West 203 234 2,400 1,800 Climbing FlightAware
07:34AM -37.6560 144.7360 273° West 217 250 3,200 2,520 Climbing FlightAware
07:34AM -37.6500 144.7100 286° West 234 269 4,100 2,880 Climbing FlightAware
07:34AM -37.6470 144.7040 302° West 235 270 4,400 3,180 Climbing FlightAware
07:35AM -37.6400 144.6960 318° Northwest 237 273 4,900 2,820 Climbing FlightAware
07:35AM -37.6310 144.6870 322° Northwest 243 280 5,400 2,400 Climbing FlightAware
07:35AM -37.6190 144.6800 335° Northwest 258 297 5,700 1,200 Climbing FlightAware
07:35AM -37.5940 144.6690 341° North 293 337 6,000 1,020 Climbing FlightAware
07:36AM -37.5680 144.6590 343° North 323 372 6,400 1,740 Climbing FlightAware
07:36AM -37.5610 144.6580 354° North 324 373 6,700 3,000 Climbing FlightAware
07:36AM -37.5180 144.6700 354° North 329 379 8,100 3,480 Climbing FlightAware
07:36AM -37.5068 144.6792 354° North 333 383 8,800 3,180 Climbing Aus ATC (RADAR)
07:36AM -37.5000 144.6900 41° Northeast 331 381 8,900 1,020 Climbing FlightAware
07:37AM -37.4890 144.7050 47° Northeast 339 390 9,200 2,280 Climbing FlightAware
07:37AM -37.4390 144.7720 47° Northeast 363 418 11,000 2,520 Climbing FlightAware
07:38AM -37.3960 144.8280 46° Northeast 379 436 12,400 2,160 Climbing FlightAware
07:39AM -37.3460 144.8950 47° Northeast 401 461 13,700 1,860 Climbing FlightAware
07:39AM -37.3060 144.9470 47° Northeast 421 484 14,600 2,460 Climbing FlightAware
07:39AM -37.3015 144.9527 47° Northeast 420 483 15,000 2,220 Climbing Aus ATC (RADAR)
07:40AM -37.2580 145.0090 46° Northeast 429 494 15,900 1,980 Climbing FlightAware
07:40AM -37.2080 145.0750 46° Northeast 441 507 17,300 2,040 Climbing FlightAware
07:41AM -37.1510 145.1500 46° Northeast 449 517 18,500 1,800 Climbing FlightAware
07:41AM -37.1070 145.2070 46° Northeast 463 533 19,400 2,700 Climbing FlightAware
07:41AM -37.1019 145.2127 46° Northeast 458 527 19,900 1,860 Climbing Aus ATC (RADAR)
07:42AM -37.0520 145.2720 43° Northeast 468 539 20,500 1,260 Climbing FlightAware
07:43AM -36.9910 145.3350 40° Northeast 484 557 21,400 1,620 Climbing FlightAware
07:43AM -36.9300 145.3970 39° Northeast 484 557 22,400 1,680 Climbing FlightAware
07:44AM -36.8690 145.4610 40° Northeast 496 571 23,400 1,500 Climbing FlightAware
07:44AM -36.8070 145.5250 40° Northeast 502 578 24,200 1,800 Climbing FlightAware
07:44AM -36.8010 145.5294 40° Northeast 500 575 24,500 1,500 Climbing Aus ATC (RADAR)
07:45AM -36.7340 145.5990 39° Northeast 501 577 25,200 1,200 Climbing FlightAware
07:45AM -36.6800 145.6550 40° Northeast 507 583 25,900 1,260 Climbing FlightAware
07:46AM -36.6140 145.7220 39° Northeast 519 597 26,600 840 Climbing FlightAware
07:47AM -36.5490 145.7880 39° Northeast 528 608 26,900 840 Climbing FlightAware
07:47AM -36.4710 145.8670 39° Northeast 538 619 27,700 1,320 Climbing FlightAware
07:48AM -36.4130 145.9260 39° Northeast 539 620 28,500 1,440 Climbing FlightAware
07:48AM -36.3460 145.9940 39° Northeast 538 619 29,300 1,320 Climbing FlightAware
07:49AM -36.2790 146.0620 39° Northeast 537 618 30,100 1,440 Climbing FlightAware
07:50AM -36.2066 146.1337 39° Northeast 537 618 31,000 1,020 Climbing Aus ATC (RADAR)
07:50AM -36.2010 146.1400 39° Northeast 539 620 30,800 840 Descending FlightAware
07:50AM -36.1386 146.2020 39° Northeast 540 621 31,500 840 Climbing Aus ATC (RADAR)
07:50AM -36.1330 146.2080 39° Northeast 539 620 31,300 300 Descending FlightAware
07:51AM -36.0740 146.2670 39° Northeast 543 625 31,700 1,080 Climbing FlightAware
07:51AM -36.0007 146.3402 39° Northeast 551 634 32,500 840 Climbing Aus ATC (RADAR)
07:51AM -36.0050 146.3360 39° Northeast 547 629 32,200 1,380 Descending FlightAware
07:52AM -35.9414 146.3997 39° Northeast 550 633 33,200 1,200 Climbing Aus ATC (RADAR)
07:52AM -35.9260 146.4150 39° Northeast 545 627 33,000 -300 Descending FlightAware
07:53AM -35.8560 146.4840 39° Northeast 546 628 33,000  Level FlightAware
07:53AM -35.7960 146.5440 39° Northeast 546 628 33,000 300 Level FlightAware
07:54AM -35.7333 146.6067 39° Northeast 549 632 33,300  Climbing Aus ATC (RADAR)
07:54AM -35.7260 146.6130 39° Northeast 545 627 33,000 -180 Descending FlightAware
07:54AM -35.6435 146.6941 39° Northeast 549 632 33,200  Climbing Aus ATC (RADAR)
07:54AM -35.6470 146.6910 39° Northeast 543 625 33,000 -420 Descending FlightAware
07:55AM -35.5880 146.7500 39° Northeast 543 625 33,000  Level FlightAware
07:55AM -35.5090 146.8270 38° Northeast 544 626 33,000  Level FlightAware
07:56AM -35.4490 146.8860 39° Northeast 542 624 33,000  Level FlightAware
07:57AM -35.3800 146.9550 39° Northeast 543 625 33,000 420 Level FlightAware
07:57AM -35.3675 146.9679 39° Northeast 546 628 33,300  Climbing Aus ATC (RADAR)
07:57AM -35.3110 147.0230 39° Northeast 544 626 33,000 -180 Descending FlightAware
07:57AM -35.2981 147.0360 39° Northeast 547 629 33,200  Climbing Aus ATC (RADAR)
07:58AM -35.2400 147.0920 38° Northeast 550 633 33,000 -240 Descending FlightAware
07:58AM -35.1710 147.1590 38° Northeast 550 633 33,000  Level FlightAware
07:59AM -35.0910 147.2360 38° Northeast 551 634 33,000  Level FlightAware
08:00AM -35.0210 147.3030 38° Northeast 552 635 33,000  Level FlightAware
08:00AM -34.9610 147.3610 38° Northeast 551 634 33,000  Level FlightAware
08:01AM -34.8910 147.4290 39° Northeast 551 634 33,000 120 Level FlightAware
08:01AM -34.8187 147.4988 39° Northeast 549 632 33,200  Climbing Aus ATC (RADAR)
08:01AM -34.8210 147.4960 39° Northeast 551 634 33,000 -360 Descending FlightAware
08:02AM -34.7510 147.5640 39° Northeast 551 634 33,000  Level FlightAware
08:02AM -34.6870 147.6240 38° Northeast 551 634 33,000 120 Level FlightAware
08:03AM -34.5988 147.7092 38° Northeast 547 629 33,200  Climbing Aus ATC (RADAR)
08:03AM -34.6010 147.7070 38° Northeast 551 634 33,000 -420 Descending FlightAware
08:04AM -34.5430 147.7630 38° Northeast 553 636 33,000 480 Level FlightAware
08:04AM -34.5286 147.7763 38° Northeast 548 631 33,300  Climbing Aus ATC (RADAR)
08:04AM -34.4690 147.8330 38° Northeast 552 635 33,000  Descending FlightAware
08:05AM -34.3981 147.8998 38° Northeast 547 629 33,300  Climbing Aus ATC (RADAR)
08:05AM -34.3950 147.9020 38° Northeast 551 634 33,000 -480 Descending FlightAware
08:05AM -34.3300 147.9650 39° Northeast 551 634 33,000  Level FlightAware
08:06AM -34.2570 148.0330 38° Northeast 551 634 33,000 240 Level FlightAware
08:06AM -34.1876 148.0987 38° Northeast 547 629 33,300  Climbing Aus ATC (RADAR)
08:06AM -34.1860 148.1000 38° Northeast 551 634 33,000 -540 Descending FlightAware
08:07AM -34.1170 148.1650 38° Northeast 550 633 33,000  Level FlightAware
08:08AM -34.0460 148.2320 38° Northeast 550 633 33,000  Level FlightAware
08:08AM -33.9740 148.2990 38° Northeast 549 632 33,000  Level FlightAware
08:09AM -33.9050 148.3640 38° Northeast 548 631 33,000  Level FlightAware
08:09AM -33.8330 148.4310 38° Northeast 547 629 33,000 120 Level FlightAware
08:10AM -33.7569 148.5017 38° Northeast 546 628 33,200  Climbing Aus ATC (RADAR)
08:10AM -33.7540 148.5050 38° Northeast 546 628 33,000 -420 Descending FlightAware
08:11AM -33.6920 148.5620 38° Northeast 545 627 33,000 360 Level FlightAware
08:11AM -33.6869 148.5665 38° Northeast 546 628 33,200  Climbing Aus ATC (RADAR)
08:11AM -33.6220 148.6270 38° Northeast 545 627 33,000 -180 Descending FlightAware
08:12AM -33.5540 148.6900 38° Northeast 544 626 33,000  Level FlightAware
08:12AM -33.4850 148.7530 37° Northeast 544 626 33,000  Level FlightAware
08:13AM -33.4150 148.8180 38° Northeast 536 617 33,000  Level FlightAware
08:14AM -33.3390 148.8880 38° Northeast 536 617 33,000  Level FlightAware
08:14AM -33.2700 148.9510 37° Northeast 544 626 33,000  Level FlightAware
08:15AM -33.2010 149.0150 37° Northeast 544 626 33,000 300 Level FlightAware
08:15AM -33.1894 149.0245 37° Northeast 539 620 33,200  Climbing Aus ATC (RADAR)
08:15AM -33.1400 149.0700 37° Northeast 544 626 33,000 -240 Descending FlightAware
08:16AM -33.0610 149.1410 37° Northeast 546 628 33,000  Level FlightAware
08:16AM -32.9880 149.2080 38° Northeast 547 629 33,000  Level FlightAware
08:17AM -32.9180 149.2720 38° Northeast 547 629 33,000  Level FlightAware
08:18AM -32.8480 149.3350 37° Northeast 548 631 33,000  Level FlightAware
08:18AM -32.7790 149.3980 37° Northeast 550 633 33,000 300 Level FlightAware
08:18AM -32.7665 149.4086 37° Northeast 549 632 33,200  Climbing Aus ATC (RADAR)
08:19AM -32.7090 149.4610 37° Northeast 550 633 33,000 -240 Descending FlightAware
08:19AM -32.6340 149.5280 37° Northeast 545 627 33,000 120 Level FlightAware
08:20AM -32.5642 149.5909 37° Northeast 550 633 33,200  Climbing Aus ATC (RADAR)
08:20AM -32.5630 149.5920 37° Northeast 542 624 33,000 -360 Descending FlightAware
08:21AM -32.5000 149.6580 41° Northeast 542 624 33,000  Level FlightAware
08:21AM -32.4420 149.7170 41° Northeast 543 625 33,000  Level FlightAware
08:22AM -32.3630 149.7990 41° Northeast 542 624 33,000 240 Level FlightAware
08:22AM -32.3552 149.8067 41° Northeast 540 621 33,200 360 Climbing Aus ATC (RADAR)
08:22AM -32.2979 149.8656 41° Northeast 539 620 33,200 -300 Level Aus ATC (RADAR)
08:22AM -32.2790 149.8850 41° Northeast 541 623 33,000 -300 Descending FlightAware
08:23AM -32.2070 149.9590 41° Northeast 542 624 33,000 300 Level FlightAware
08:23AM -32.2027 149.9636 41° Northeast 538 619 33,200 240 Climbing Aus ATC (RADAR)
08:24AM -32.1165 150.0520 41° Northeast 539 620 33,200 -300 Level Aus ATC (RADAR)
08:24AM -32.1120 150.0570 41° Northeast 543 625 33,000 -360 Descending FlightAware
08:24AM -32.0460 150.1250 41° Northeast 550 633 33,000  Level FlightAware
08:25AM -31.9670 150.2040 40° Northeast 551 634 33,000  Level FlightAware
08:26AM -31.8940 150.2790 41° Northeast 553 636 33,000  Level FlightAware
08:26AM -31.8250 150.3490 41° Northeast 554 638 33,000  Level FlightAware
08:27AM -31.7340 150.4410 41° Northeast 550 633 33,000  Level FlightAware
08:28AM -31.6670 150.5090 41° Northeast 550 633 33,000  Level FlightAware
08:28AM -31.6000 150.5770 41° Northeast 550 633 33,000 300 Level FlightAware
08:28AM -31.5961 150.5805 41° Northeast 538 619 33,200  Climbing Aus ATC (RADAR)
08:29AM -31.5340 150.6440 41° Northeast 551 634 33,000 -180 Descending FlightAware
08:29AM -31.4640 150.7130 40° Northeast 547 629 33,000  Level FlightAware
08:30AM -31.3980 150.7800 40° Northeast 539 620 33,000 240 Level FlightAware
08:30AM -31.3838 150.7936 40° Northeast 535 616 33,200  Climbing Aus ATC (RADAR)
08:31AM -31.3300 150.8480 40° Northeast 540 621 33,000  Descending FlightAware
08:31AM -31.3266 150.8511 40° Northeast 534 615 33,200  Climbing Aus ATC (RADAR)
08:31AM -31.2370 150.9410 41° Northeast 548 631 33,000 -180 Descending FlightAware
08:32AM -31.1690 151.0090 41° Northeast 553 636 33,000  Level FlightAware
08:33AM -31.1030 151.0740 40° Northeast 553 636 33,000  Level FlightAware
08:33AM -31.0440 151.1320 40° Northeast 553 636 33,000 300 Level FlightAware
08:33AM -31.0161 151.1601 40° Northeast 542 624 33,200  Climbing Aus ATC (RADAR)
08:34AM -30.9830 151.1920 40° Northeast 553 636 33,000  Descending FlightAware
08:35AM -30.8820 151.2930 41° Northeast 33,000 120 Level FlightAware
08:35AM -30.8102 151.3634 41° Northeast 543 625 33,200  Climbing Aus ATC (RADAR)
08:35AM -30.8140 151.3600 41° Northeast 555 639 33,000  Descending FlightAware
08:36AM -30.7429 151.4300 41° Northeast 536 617 33,200  Climbing Aus ATC (RADAR)
08:36AM -30.7470 151.4270 41° Northeast 548 631 33,000 -300 Descending FlightAware
08:36AM -30.6870 151.4850 40° Northeast 548 631 33,000  Level FlightAware
08:37AM -30.6280 151.5430 40° Northeast 548 631 33,000  Level FlightAware
08:38AM -30.5680 151.6010 40° Northeast 548 631 33,000  Level FlightAware
08:38AM -30.5090 151.6580 40° Northeast 548 631 33,000  Level FlightAware
08:39AM -30.4490 151.7160 40° Northeast 548 631 33,000 60 Level FlightAware
08:39AM -30.3076 151.8552 40° Northeast 535 616 33,100 120 Climbing Aus ATC (RADAR)
08:40AM -30.2120 151.9484 40° Northeast 528 608 33,200 60 Climbing Aus ATC (RADAR)
08:41AM -30.1451 152.0132 40° Northeast 526 605 33,200 -180 Level Aus ATC (RADAR)
08:41AM -30.0810 152.0770 40° Northeast 542 624 33,000 -240 Descending FlightAware
08:42AM -30.0184 152.1366 40° Northeast 542 624 33,000  Level FlightAware ADS-B (EKCH / CPH)
08:42AM -29.9763 152.1771 40° Northeast 538 619 33,000  Level FlightAware ADS-B (EKCH / CPH)
08:43AM -29.8884 152.2614 40° Northeast 531 611 33,000 60 Level FlightAware ADS-B (EKCH / CPH)
08:44AM -29.8215 152.3248 40° Northeast 516 594 33,100  Climbing Aus ATC (RADAR)
08:44AM -29.8128 152.3341 40° Northeast 531 611 33,000 -180 Descending FlightAware ADS-B (EKCH / CPH)
08:44AM -29.7466 152.3979 40° Northeast 523 602 33,000  Level FlightAware ADS-B (EKCH / CPH)
08:45AM -29.6879 152.4542 40° Northeast 520 598 33,000  Level FlightAware ADS-B (EKCH / CPH)
08:45AM -29.6249 152.5142 40° Northeast 519 597 33,000  Level FlightAware ADS-B (EKCH / CPH)
08:46AM -29.5729 152.5638 40° Northeast 518 596 33,000  Level FlightAware ADS-B (EKCH / CPH)
08:46AM -29.5163 152.6176 40° Northeast 518 596 33,000  Level FlightAware ADS-B (EKCH / CPH)
08:47AM -29.4625 152.6687 40° Northeast 518 596 33,000  Level FlightAware ADS-B (EKCH / CPH)
08:48AM -29.3858 152.7417 40° Northeast 518 596 33,000  Level FlightAware ADS-B (EKCH / CPH)
08:48AM -29.2930 152.8300 40° Northeast 517 595 33,000  Level FlightAware
08:49AM -29.2576 152.8630 39° Northeast 516 594 33,000  Level FlightAware ADS-B (EKCH / CPH)
08:49AM -29.2003 152.9169 39° Northeast 512 589 33,000  Level FlightAware ADS-B (EKCH / CPH)
08:50AM -29.1456 152.9683 39° Northeast 512 589 33,000  Level FlightAware ADS-B (EKCH / CPH)
08:50AM -29.0916 153.0191 39° Northeast 508 585 33,000  Level FlightAware ADS-B (EKCH / CPH)
08:51AM -29.0394 153.0686 40° Northeast 503 579 33,000  Level FlightAware ADS-B (EKCH / CPH)
08:51AM -28.9836 153.1211 39° Northeast 501 577 33,000  Level FlightAware ADS-B (EKCH / CPH)
08:52AM -28.9255 153.1755 39° Northeast 497 572 33,000  Level FlightAware ADS-B
08:52AM -28.8617 153.2351 39° Northeast 495 570 33,000  Level FlightAware ADS-B (EKCH / CPH)
08:53AM -28.8060 153.2870 39° Northeast 493 567 33,000  Level FlightAware ADS-B (EKCH / CPH)
08:53AM -28.7536 153.3356 39° Northeast 494 568 33,000  Level FlightAware ADS-B (EKCH / CPH)
08:54AM -28.7010 153.3846 39° Northeast 502 578 33,000  Level FlightAware ADS-B (EKCH / CPH)
08:54AM -28.6464 153.4355 39° Northeast 501 577 33,000  Level FlightAware ADS-B (EKCH / CPH)
08:55AM -28.5926 153.4859 39° Northeast 504 580 33,000  Level FlightAware ADS-B (EKCH / CPH)
08:55AM -28.5374 153.5376 39° Northeast 504 580 33,000  Level FlightAware ADS-B (EKCH / CPH)
08:56AM -28.4854 153.5858 39° Northeast 503 579 33,000  Level FlightAware ADS-B (EKCH / CPH)
08:56AM -28.4241 153.6423 39° Northeast 502 578 33,000  Level FlightAware ADS-B (EKCH / CPH)
08:57AM -28.3570 153.7042 39° Northeast 500 575 33,000  Level FlightAware ADS-B (EKCH / CPH)
08:58AM -28.3052 153.7520 39° Northeast 499 574 33,000  Level FlightAware ADS-B (EKCH / CPH)
08:58AM -28.2498 153.8029 39° Northeast 496 571 33,000  Level FlightAware ADS-B (EKCH / CPH)
08:59AM -28.1987 153.8500 39° Northeast 496 571 33,000  Level FlightAware ADS-B (EKCH / CPH)
08:59AM -28.1442 153.8999 39° Northeast 493 567 33,000  Level FlightAware ADS-B (EKCH / CPH)
09:00AM -28.0903 153.9495 39° Northeast 493 567 33,000  Level FlightAware ADS-B (EKCH / CPH)
09:00AM -28.0400 153.9960 39° Northeast 492 566 33,000  Level FlightAware
09:00AM -28.0194 154.0144 38° Northeast 493 567 33,000 240 Level FlightAware ADS-B (EKCH / CPH)
09:01AM -27.9510 154.0771 39° Northeast 496 571 33,200 480 Climbing FlightAware ADS-B (EKCH / CPH)
09:02AM -27.8779 154.1439 39° Northeast 500 575 33,700 780 Climbing FlightAware ADS-B (EKCH / CPH)
09:02AM -27.7935 154.2206 39° Northeast 504 580 34,400 1,140 Climbing FlightAware ADS-B (EKCH / CPH)
09:03AM -27.7147 154.2925 39° Northeast 493 567 35,500 1,740 Climbing FlightAware ADS-B (EKCH / CPH)
09:04AM -27.6448 154.3562 39° Northeast 472 543 36,800 1,260 Climbing FlightAware ADS-B (EKCH / CPH)
09:04AM -27.5939 154.4022 39° Northeast 474 545 37,000 180 Climbing FlightAware ADS-B (EKCH / CPH)
09:05AM -27.5430 154.4484 39° Northeast 476 548 37,000  Level FlightAware ADS-B (EKCH / CPH)
09:05AM -27.4930 154.4935 39° Northeast 475 547 37,000  Level FlightAware ADS-B (EKCH / CPH)
09:06AM -27.4395 154.5418 39° Northeast 477 549 37,000  Level FlightAware ADS-B (EKCH / CPH)
09:06AM -27.3907 154.5858 39° Northeast 476 548 37,000  Level FlightAware ADS-B (EKCH / CPH)
09:07AM -27.3376 154.6341 39° Northeast 478 550 37,000  Level FlightAware ADS-B (EKCH / CPH)
09:07AM -27.3078 154.6686 46° Northeast 489 563 37,000  Level FlightAware ADS-B (EKCH / CPH)
09:07AM -27.2869 154.7135 62° Northeast 505 581 37,000  Level FlightAware ADS-B (EKCH / CPH)
09:08AM -27.2693 154.7926 76° East 510 587 37,000  Level FlightAware ADS-B (EKCH / CPH)
09:08AM -27.2531 154.8717 77° East 508 585 37,000  Level FlightAware ADS-B (EKCH / CPH)
09:09AM -27.2386 154.9481 78° East 509 586 37,000  Level FlightAware ADS-B (EKCH / CPH)
09:09AM -27.2240 155.0265 78° East 505 581 37,000  Level FlightAware ADS-B (EKCH / CPH)
09:10AM -27.1989 155.0988 69° East 497 572 37,000  Level FlightAware ADS-B (EKCH / CPH)
09:10AM -27.1745 155.1675 68° East 497 572 37,000  Level FlightAware ADS-B (EKCH / CPH)
09:11AM -27.1487 155.2423 69° East 500 575 37,000  Level FlightAware ADS-B (EKCH / CPH)
09:12AM -27.1186 155.3316 69° East 503 579 37,000  Level FlightAware ADS-B (EKCH / CPH)
09:13AM -27.0760 155.4590 69° East 506 582 37,000 60 Level FlightAware
09:13AM -27.0413 155.5658 69° East 499 574 37,100  Climbing Aus ATC (RADAR)
09:13AM -27.0500 155.5340 69° East 506 582 37,000 -180 Descending FlightAware
09:14AM -27.0240 155.6090 69° East 506 582 37,000  Level FlightAware
09:14AM -26.9860 155.7327 71° East 516 594 37,000  Level FlightAware ADS-B (EKCH / CPH)
09:15AM -26.9600 155.8097 69° East 521 600 37,000 60 Level FlightAware ADS-B (EKCH / CPH)
09:15AM -26.9278 155.9023 69° East 512 589 37,100  Climbing Aus ATC (RADAR)
09:16AM -26.9260 155.9090 69° East 521 600 37,000 -240 Descending FlightAware
09:16AM -26.9002 155.9848 69° East 522 601 37,000  Level FlightAware ADS-B (EKCH / CPH)
09:16AM -26.8748 156.0593 69° East 522 601 37,000  Level FlightAware ADS-B (EKCH / CPH)
09:17AM -26.8485 156.1364 69° East 521 600 37,000  Level FlightAware ADS-B (EKCH / CPH)
09:17AM -26.8225 156.2135 69° East 521 600 37,000  Level FlightAware ADS-B (EKCH / CPH)
09:18AM -26.7718 156.3645 69° East 521 600 37,000  Level FlightAware ADS-B (EKCH / CPH)
09:19AM -26.7461 156.4424 70° East 519 597 37,000 60 Level FlightAware ADS-B (EKCH / CPH)
09:19AM -26.7211 156.5188 70° East 506 582 37,100  Climbing Aus ATC (RADAR)
09:20AM -26.7170 156.5280 70° East 519 597 37,000 -240 Descending FlightAware
09:20AM -26.6980 156.5884 71° East 519 597 37,000 60 Level FlightAware ADS-B (EKCH / CPH)
09:21AM -26.6640 156.6949 71° East 506 582 37,100  Climbing Aus ATC (RADAR)
09:21AM -26.6590 156.7070 71° East 519 597 37,000 -180 Descending FlightAware
09:21AM -26.6307 156.7935 70° East 524 603 37,000  Level FlightAware ADS-B (EKCH / CPH)
09:22AM -26.6070 156.8693 71° East 525 604 37,000  Level FlightAware ADS-B (EKCH / CPH)
09:22AM -26.5853 156.9457 72° East 503 579 37,000  Level FlightAware ADS-B (EKCH / CPH)
09:23AM -26.5630 157.0340 74° East 506 582 37,000  Level FlightAware
09:24AM -26.5430 157.1110 74° East 506 582 37,000  Level FlightAware
09:24AM -26.5230 157.1880 74° East 506 582 37,000  Level FlightAware
09:24AM -26.5163 157.2984 86° East 517 595 37,000  Level FlightAware ADS-B (EKCH / CPH)
09:25AM -26.5010 157.3880 79° East 518 596 37,000  Level FlightAware
09:26AM -26.4870 157.4680 79° East 518 596 37,000  Level FlightAware
09:26AM -26.4730 157.5490 79° East 518 596 37,000  Level FlightAware
09:27AM -26.4590 157.6290 79° East 518 596 37,000  Level FlightAware
09:28AM -26.4450 157.7090 79° East 518 596 37,000  Level FlightAware
09:28AM -26.4310 157.7900 79° East 518 596 37,000  Level FlightAware
09:29AM -26.4170 157.8700 79° East 518 596 37,000  Level FlightAware
09:29AM -26.4030 157.9510 79° East 518 596 37,000  Level FlightAware
09:30AM -26.3890 158.0310 79° East 518 596 37,000  Level FlightAware
09:31AM -26.3750 158.1110 79° East 518 596 37,000  Level FlightAware
09:31AM -26.3610 158.1920 79° East 518 596 37,000  Level FlightAware
09:32AM -26.3470 158.2720 79° East 518 596 37,000  Level FlightAware
09:32AM -25.7645 158.2072 167° South 37,000  Level Aus ATC (Calculated)
09:32AM -26.3330 158.3520 79° East 518 596 37,000  Level FlightAware
09:33AM -26.3190 158.4330 79° East 518 596 37,000  Level FlightAware
09:34AM -26.3050 158.5130 79° East 518 596 37,000  Level FlightAware
09:34AM -26.2910 158.5930 79° East 518 596 37,000  Level FlightAware
09:37AM -26.0866 158.8483 48° Northeast  Level Estimated
09:37AM -25.1670 158.5790 29° Northeast 37,000  Level Aus ATC (Calculated)
09:37AM -25.1192 158.6086 52° Northeast 37,000  Level Aus ATC (Calculated)
09:39AM -25.0174 158.7548 52° Northeast  Level Estimated
09:40AM -24.9348 158.8732 52° Northeast  Level Estimated
09:41AM -24.8521 158.9915 52° Northeast  Level Estimated
09:42AM -24.7692 159.1095 52° Northeast  Level Estimated
09:43AM -24.6863 159.2275 52° Northeast  Level Estimated
09:44AM -24.6033 159.3452 52° Northeast  Level Estimated
09:45AM -24.5202 159.4629 52° Northeast  Level Estimated
09:46AM -24.4370 159.5803 52° Northeast  Level Estimated
09:47AM -24.3537 159.6976 52° Northeast  Level Estimated
09:48AM -24.2704 159.8148 52° Northeast  Level Estimated
09:49AM -24.1869 159.9318 52° Northeast  Level Estimated
09:49AM -24.0805 159.8687 53° Northeast 37,000  Level Aus ATC (Calculated)
09:50AM -23.9982 159.9865 53° Northeast  Level Estimated
09:51AM -23.9159 160.1042 53° Northeast  Level Estimated
09:52AM -23.8335 160.2217 53° Northeast  Level Estimated
09:52AM -23.7883 160.2172 53° Northeast 37,000  Level Aus ATC (Calculated)
09:53AM -23.7062 160.3349 53° Northeast  Level Estimated
09:54AM -23.6240 160.4525 53° Northeast  Level Estimated
09:54AM -23.5274 160.5264 360° North 37,000  Level Aus ATC (Calculated)
09:55AM -23.5274 160.5264 47° Northeast 37,000  Level Aus ATC (Calculated)
09:56AM -23.4609 160.6048 53° Northeast 37,000  Level Aus ATC (Calculated)
09:58AM -23.3094 160.8221 53° Northeast  Level Estimated
09:59AM -23.2289 160.9373 53° Northeast  Level Estimated
10:00AM -23.1483 161.0523 53° Northeast  Level Estimated
10:01AM -23.0676 161.1672 53° Northeast  Level Estimated
10:02AM -22.9868 161.2820 53° Northeast  Level Estimated
10:03AM -22.9059 161.3966 53° Northeast  Level Estimated
10:04AM -22.8250 161.5111 53° Northeast  Level Estimated
10:04AM -22.6850 161.5114 53° Northeast 37,000  Level Aus ATC (Calculated)
10:05AM -22.6054 161.6268 53° Northeast  Level Estimated
10:06AM -22.5257 161.7421 53° Northeast  Level Estimated
10:06AM -22.4821 161.7458 71° East 37,000  Level Aus ATC (Calculated)
10:07AM -22.4460 161.8572 53° Northeast  Level Estimated
10:08AM -22.3234 161.9766 53° Northeast  Level Estimated
10:09AM -22.2439 162.0918 53° Northeast  Level Estimated
10:10AM -22.1643 162.2069 53° Northeast  Level Estimated
10:11AM -22.0847 162.3218 53° Northeast  Level Estimated
10:12AM -22.0050 162.4366 53° Northeast  Level Estimated
10:13AM -21.9252 162.5513 53° Northeast  Level Estimated
10:14AM -21.8453 162.6659 53° Northeast  Level Estimated
10:15AM -21.7654 162.7803 53° Northeast  Level Estimated
10:16AM -21.6853 162.8947 53° Northeast  Level Estimated
10:16AM -21.4496 162.9222 153° Southeast 37,000  Level Aus ATC (Calculated)
10:17AM -21.6052 163.0088 53° Northeast  Level Estimated
10:18AM -21.2951 163.1546 55° Northeast  Level Estimated
10:18AM -21.3236 163.0838 55° Northeast 1,600  Level Aus ATC (Calculated)
10:19AM -21.2465 163.2001 55° Northeast  Level Estimated
10:20AM -21.1694 163.3163 55° Northeast  Level Estimated
10:21AM -21.0922 163.4324 55° Northeast  Level Estimated
10:21AM -21.0957 163.4185 55° Northeast 1,600  Level Aus ATC (Calculated)
10:22AM -21.0185 163.5345 55° Northeast  Level Estimated
10:22AM -20.9815 163.5855 54° Northeast 1,600  Level Aus ATC (Calculated)
10:24AM -20.8282 163.8152 54° Northeast  Level Estimated
10:25AM -20.7508 163.9308 54° Northeast  Level Estimated
10:26AM -20.6733 164.0464 54° Northeast  Level Estimated
10:27AM -20.5957 164.1618 54° Northeast  Level Estimated
10:28AM -20.5181 164.2771 54° Northeast  Level Estimated
10:29AM -20.4404 164.3922 54° Northeast  Level Estimated
10:30AM -20.3626 164.5073 54° Northeast  Level Estimated
10:31AM -20.2847 164.6222 54° Northeast  Level Estimated
10:32AM -20.2067 164.7370 54° Northeast  Level Estimated
10:33AM -20.1287 164.8518 54° Northeast  Level Estimated
10:34AM -20.0506 164.9664 54° Northeast  Level Estimated
10:35AM -19.9725 165.0808 54° Northeast  Level Estimated
10:36AM -19.8942 165.1952 54° Northeast  Level Estimated
10:37AM -19.8159 165.3094 54° Northeast  Level Estimated
10:38AM -19.7375 165.4236 54° Northeast  Level Estimated
10:39AM -19.6590 165.5376 54° Northeast  Level Estimated
10:40AM -19.5805 165.6515 54° Northeast  Level Estimated
10:41AM -19.5019 165.7654 54° Northeast  Level Estimated
10:42AM -19.4232 165.8790 54° Northeast  Level Estimated
10:43AM -19.3445 165.9926 54° Northeast  Level Estimated
10:44AM -19.2657 166.1061 54° Northeast  Level Estimated
10:45AM -19.1868 166.2195 54° Northeast  Level Estimated
10:46AM -19.1078 166.3327 54° Northeast  Level Estimated
10:47AM -19.0288 166.4459 54° Northeast  Level Estimated
10:48AM -18.9497 166.5589 54° Northeast  Level Estimated
10:49AM -18.8706 166.6719 53° Northeast  Level Estimated
10:50AM -18.7913 166.7847 53° Northeast  Level Estimated
10:51AM -18.7120 166.8974 53° Northeast  Level Estimated
10:52AM -18.6327 167.0100 53° Northeast  Level Estimated
10:53AM -18.5532 167.1225 53° Northeast  Level Estimated
10:54AM -18.4737 167.2350 53° Northeast  Level Estimated
10:55AM -18.3942 167.3472 53° Northeast  Level Estimated
10:56AM -18.3145 167.4595 53° Northeast  Level Estimated
10:57AM -18.2348 167.5715 53° Northeast  Level Estimated
10:58AM -18.1551 167.6835 53° Northeast  Level Estimated
10:59AM -18.0752 167.7954 53° Northeast  Level Estimated
11:00AM -17.9953 167.9072 53° Northeast  Level Estimated
11:01AM -17.9154 168.0189 53° Northeast  Level Estimated
11:02AM -17.8354 168.1305 53° Northeast  Level Estimated
11:03AM -17.7553 168.2420 53° Northeast  Level Estimated
11:04AM -17.6993 168.3198 53° Northeast  Level Estimated
11:05AM -17.6993 168.3198 143° Southeast  Level Estimated
11:06AM -17.6993 168.3198 37° Northeast  Level Estimated
11:07AM -17.6993 168.3198 143° Southeast  Level Estimated
11:08AM -17.6993 168.3198 37° Northeast  Level Estimated
11:09AM -17.6993 168.3198 143° Southeast  Level Estimated
11:10AM -17.6993 168.3198 37° Northeast  Level Estimated
11:11AM -17.6993 168.3198 143° Southeast  Level Estimated
11:12AM -17.6993 168.3198 37° Northeast  Level Estimated
11:13AM -17.6993 168.3198 143° Southeast  Level Estimated
11:14AM -17.6993 168.3198 37° Northeast  Level Estimated
11:15AM -17.6993 168.3198 143° Southeast  Level Estimated
11:16AM -17.6993 168.3198 37° Northeast  Level Estimated
11:17AM -17.6993 168.3198 143° Southeast  Level Estimated
11:18AM -17.6993 168.3198 37° Northeast  Level Estimated
11:19AM -17.6993 168.3198 143° Southeast  Level Estimated
11:20AM -17.6993 168.3198 37° Northeast  Level Estimated
11:21AM -17.6993 168.3198 143° Southeast  Level Estimated
11:22AM -17.6993 168.3198 37° Northeast  Level Estimated
11:23AM -17.6993 168.3198 143° Southeast  Level Estimated
11:24AM -17.6993 168.3198 37° Northeast  Level Estimated
11:25AM -17.6993 168.3198 143° Southeast  Level Estimated
11:26AM -17.6993 168.3198 37° Northeast  Level Estimated
11:27AM -17.6993 168.3198 143° Southeast  Level Estimated